Terminal Aerodrome Forecast
Issued by NWS

Home | Current Version | Previous Version | Text Only | Print | Product List | Glossary On
Versions: 1 2 3 4 5 6 7 8 9 10 11 12 13 14
000
FTUS44 KJAN 012300
TAFHKS
TAF
KHKS 012320Z 0200/0224 09004KT 2SM -RA BR VCTS OVC005CB
     FM020300 07003KT 4SM -RA BR OVC007
     FM020500 06003KT 1 1/2SM BR OVC003
     FM020900 06003KT 1/2SM FG OVC003
     FM021100 03003KT 1 1/2SM BR OVC003
     FM021800 03005KT 4SM BR OVC003=

USA.gov is the U.S. government's official web portal to all federal, state and local government web resources and services.